Time;durP1;ratioP1;P1;durP2;ratioP2;P2;SDS_P1;SDS_P2;PMS_P1;PMS_P2;Temp;Humidity;BMP_temperature;BMP_pressure;BME280_temperature;BME280_humidity;BME280_pressure;Samples;Min_cycle;Max_cycle;Signal;HPM_P1;HPM_P2
2022/11/12 00:00:38;;;;;;;;;;;11.70;99.90;;;;;;5059644;28;19908;-58
2022/11/12 00:03:03;;;;;;;;;;;11.70;99.90;;;;;;5060010;28;19909;-58
2022/11/12 00:05:29;;;;;;;;;;;11.70;99.90;;;;;;5059898;28;19931;-58
2022/11/12 00:07:55;;;;;;;;;;;11.70;99.90;;;;;;5059861;28;19909;-58
2022/11/12 00:10:21;;;;;;;;;;;11.70;99.90;;;;;;5059426;28;19921;-58
2022/11/12 00:12:47;;;;;;;;;;;11.70;99.90;;;;;;5059560;28;19958;-58
2022/11/12 00:15:12;;;;;;;;;;;11.70;99.90;;;;;;5059799;28;19916;-58
2022/11/12 00:17:38;;;;;;;;;;;11.80;99.90;;;;;;5059530;28;19909;-58
2022/11/12 00:20:05;;;;;;;;;;;11.80;99.90;;;;;;5059707;28;20356;-58
2022/11/12 00:22:31;;;;;;;;;;;11.80;99.90;;;;;;5059478;28;19996;-58
2022/11/12 00:24:57;;;;;;;;;;;11.80;99.90;;;;;;5058960;28;19952;-58
2022/11/12 00:27:22;;;;;;;;;;;11.80;99.90;;;;;;5059203;28;19960;-58
2022/11/12 00:29:48;;;;;;;;;;;11.90;99.90;;;;;;5059424;28;19952;-58
2022/11/12 00:32:13;;;;;;;;;;;12.00;99.90;;;;;;5059449;28;19959;-58
2022/11/12 00:34:39;;;;;;;;;;;12.00;99.90;;;;;;5058942;28;19909;-58
2022/11/12 00:37:05;;;;;;;;;;;12.00;99.90;;;;;;5059325;28;20000;-58
2022/11/12 00:39:30;;;;;;;;;;;12.00;99.90;;;;;;5059080;28;20369;-58
2022/11/12 00:41:56;;;;;;;;;;;12.10;99.90;;;;;;5059274;28;19919;-58
2022/11/12 00:44:21;;;;;;;;;;;12.10;99.90;;;;;;5059007;28;19908;-58
2022/11/12 00:46:47;;;;;;;;;;;12.10;99.90;;;;;;5059391;28;19944;-58
2022/11/12 00:49:13;;;;;;;;;;;12.10;99.90;;;;;;5058780;28;19931;-58
2022/11/12 00:51:38;;;;;;;;;;;12.20;99.90;;;;;;5058657;28;19908;-58
2022/11/12 00:54:04;;;;;;;;;;;12.10;99.90;;;;;;5058803;28;19923;-58
2022/11/12 00:56:30;;;;;;;;;;;12.20;99.90;;;;;;5059126;28;20448;-58
2022/11/12 00:58:56;;;;;;;;;;;12.10;99.90;;;;;;5059234;28;19912;-58
2022/11/12 01:01:22;;;;;;;;;;;12.20;99.90;;;;;;5058683;28;20001;-58
2022/11/12 01:03:47;;;;;;;;;;;12.20;99.90;;;;;;5058872;28;19909;-58
2022/11/12 01:06:15;;;;;;;;;;;12.20;99.90;;;;;;5058478;28;19915;-58
2022/11/12 01:08:41;;;;;;;;;;;12.30;99.90;;;;;;5058866;28;19916;-58
2022/11/12 01:11:07;;;;;;;;;;;12.20;99.90;;;;;;5058313;28;19920;-58
2022/11/12 01:13:32;;;;;;;;;;;12.30;99.90;;;;;;5058484;28;19917;-58
2022/11/12 01:15:58;;;;;;;;;;;12.30;99.90;;;;;;5058440;28;19916;-58
2022/11/12 01:18:24;;;;;;;;;;;12.30;99.90;;;;;;5058531;28;19924;-58
2022/11/12 01:20:49;;;;;;;;;;;12.30;99.90;;;;;;5058305;28;19915;-58
2022/11/12 01:23:15;;;;;;;;;;;12.30;99.90;;;;;;5058094;28;19909;-58
2022/11/12 01:25:40;;;;;;;;;;;12.30;99.90;;;;;;5058461;28;19916;-58
2022/11/12 01:28:06;;;;;;;;;;;12.30;99.90;;;;;;5058041;28;19935;-58
2022/11/12 01:30:31;;;;;;;;;;;12.30;99.90;;;;;;5058248;28;19913;-58
2022/11/12 01:32:57;;;;;;;;;;;12.30;99.90;;;;;;5057966;28;20324;-58
2022/11/12 01:35:23;;;;;;;;;;;12.30;99.90;;;;;;5057986;28;19909;-58
2022/11/12 01:37:48;;;;;;;;;;;12.40;99.90;;;;;;5057403;28;19915;-58
2022/11/12 01:40:14;;;;;;;;;;;12.30;99.90;;;;;;5057830;28;19917;-58
2022/11/12 01:42:40;;;;;;;;;;;12.30;99.90;;;;;;5058230;28;19909;-58
2022/11/12 01:45:14;;;;;;;;;;;12.30;99.90;;;;;;5058370;28;19919;-58
2022/11/12 01:47:41;;;;;;;;;;;12.40;99.90;;;;;;5057928;28;19908;-58
2022/11/12 01:50:22;;;;;;;;;;;12.40;99.90;;;;;;5058042;28;19912;-58
2022/11/12 01:52:50;;;;;;;;;;;12.40;99.90;;;;;;5058243;28;19955;-58
2022/11/12 01:55:21;;;;;;;;;;;12.40;99.90;;;;;;5057839;28;19977;-58
2022/11/12 01:58:19;;;;;;;;;;;12.40;99.90;;;;;;5058059;28;20007;-58
2022/11/12 02:00:45;;;;;;;;;;;12.40;99.90;;;;;;5056653;28;19909;-58
2022/11/12 02:03:16;;;;;;;;;;;12.40;99.90;;;;;;5058091;28;20302;-58
2022/11/12 02:05:41;;;;;;;;;;;12.40;99.90;;;;;;5057922;28;19974;-58
2022/11/12 02:08:09;;;;;;;;;;;12.40;99.90;;;;;;5057650;28;19913;-58
2022/11/12 02:10:37;;;;;;;;;;;12.40;99.90;;;;;;5057407;28;19921;-58
2022/11/12 02:15:48;;;;;;;;;;;12.40;99.90;;;;;;5057912;28;19946;-58
2022/11/12 02:18:14;;;;;;;;;;;12.40;99.90;;;;;;5057796;28;20277;-58
2022/11/12 02:20:39;;;;;;;;;;;12.40;99.90;;;;;;5057535;28;20445;-58
2022/11/12 02:23:06;;;;;;;;;;;12.40;99.90;;;;;;5057768;28;19908;-58
2022/11/12 02:25:32;;;;;;;;;;;12.30;99.90;;;;;;5057702;28;19936;-58
2022/11/12 02:27:59;;;;;;;;;;;12.30;99.90;;;;;;5057670;28;20280;-58
2022/11/12 02:30:57;;;;;;;;;;;12.40;99.90;;;;;;5057302;28;20007;-58
2022/11/12 02:33:23;;;;;;;;;;;12.40;99.90;;;;;;5056421;28;20353;-58
2022/11/12 02:35:48;;;;;;;;;;;12.40;99.90;;;;;;5057611;28;19916;-58
2022/11/12 02:38:14;;;;;;;;;;;12.40;99.90;;;;;;5057574;28;19909;-58
2022/11/12 02:40:40;;;;;;;;;;;12.40;99.90;;;;;;5057621;28;20276;-58
2022/11/12 02:43:05;;;;;;;;;;;12.40;99.90;;;;;;5057354;28;19920;-58
2022/11/12 02:45:31;;;;;;;;;;;12.40;99.90;;;;;;5057361;28;19909;-58
2022/11/12 02:47:57;;;;;;;;;;;12.40;99.90;;;;;;5057569;28;20327;-58
2022/11/12 02:50:22;;;;;;;;;;;12.50;99.90;;;;;;5060982;28;19920;-58
2022/11/12 02:52:48;;;;;;;;;;;12.40;99.90;;;;;;5061167;28;20359;-58
2022/11/12 02:55:14;;;;;;;;;;;12.50;99.90;;;;;;5061540;28;19988;-58
2022/11/12 02:57:40;;;;;;;;;;;12.40;99.90;;;;;;5061022;28;20353;-58
2022/11/12 03:00:07;;;;;;;;;;;12.50;99.90;;;;;;5061273;28;19931;-58
2022/11/12 03:02:33;;;;;;;;;;;12.40;99.90;;;;;;5060838;28;19940;-58
2022/11/12 03:04:58;;;;;;;;;;;12.40;99.90;;;;;;5060916;28;19913;-58
2022/11/12 03:07:24;;;;;;;;;;;12.40;99.90;;;;;;5060886;28;19956;-58
2022/11/12 03:09:50;;;;;;;;;;;12.40;99.90;;;;;;5060608;28;20007;-58
2022/11/12 03:12:15;;;;;;;;;;;12.30;99.90;;;;;;5060787;28;19908;-58
2022/11/12 03:14:41;;;;;;;;;;;12.30;99.90;;;;;;5061183;28;19915;-58
2022/11/12 03:17:06;;;;;;;;;;;12.30;99.90;;;;;;5060863;28;19908;-58
2022/11/12 03:19:32;;;;;;;;;;;12.30;99.90;;;;;;5060797;28;19936;-58
2022/11/12 03:21:57;;;;;;;;;;;12.30;99.90;;;;;;5060569;28;19908;-58
2022/11/12 03:24:23;;;;;;;;;;;12.30;99.90;;;;;;5060866;28;20346;-58
2022/11/12 03:26:49;;;;;;;;;;;12.30;99.90;;;;;;5060347;28;19931;-58
2022/11/12 03:29:14;;;;;;;;;;;12.20;99.90;;;;;;5060445;28;19909;-58
2022/11/12 03:31:40;;;;;;;;;;;12.20;99.90;;;;;;5060339;28;19908;-58
2022/11/12 03:34:05;;;;;;;;;;;12.20;99.90;;;;;;5060387;28;19913;-58
2022/11/12 03:36:31;;;;;;;;;;;12.20;99.90;;;;;;5060692;28;19971;-58
2022/11/12 03:38:57;;;;;;;;;;;12.20;99.90;;;;;;5060790;28;19916;-58
2022/11/12 03:41:22;;;;;;;;;;;12.30;99.90;;;;;;5060416;28;19915;-58
2022/11/12 03:43:48;;;;;;;;;;;12.30;99.90;;;;;;5060221;28;19909;-58
2022/11/12 03:46:13;;;;;;;;;;;12.30;99.90;;;;;;5060356;28;19931;-58
2022/11/12 03:48:39;;;;;;;;;;;12.30;99.90;;;;;;5060089;28;19909;-58
2022/11/12 03:51:05;;;;;;;;;;;12.60;99.90;;;;;;5059973;28;20402;-58
2022/11/12 03:53:30;;;;;;;;;;;12.50;99.90;;;;;;5060448;28;19909;-58
2022/11/12 03:55:56;;;;;;;;;;;12.70;99.90;;;;;;5059926;28;19913;-58
2022/11/12 03:58:21;;;;;;;;;;;12.80;99.90;;;;;;5060405;28;20312;-58
2022/11/12 04:00:47;;;;;;;;;;;12.80;99.90;;;;;;5059768;28;19909;-58
2022/11/12 04:03:12;;;;;;;;;;;13.00;99.90;;;;;;5060158;28;19955;-58
2022/11/12 04:08:35;;;;;;;;;;;13.00;99.90;;;;;;5059869;28;20403;-58
2022/11/12 04:11:07;;;;;;;;;;;13.10;99.90;;;;;;5059325;28;19974;-58
2022/11/12 04:13:32;;;;;;;;;;;13.20;99.90;;;;;;5059842;28;19908;-58
2022/11/12 04:21:49;;;;;;;;;;;13.30;99.90;;;;;;5059566;28;20441;-58
2022/11/12 04:27:04;;;;;;;;;;;13.30;99.90;;;;;;5059641;28;19923;-58
2022/11/12 04:32:13;;;;;;;;;;;13.20;99.90;;;;;;5059372;28;20018;-58
2022/11/12 04:34:39;;;;;;;;;;;13.30;99.90;;;;;;5059345;28;20000;-58
2022/11/12 04:37:05;;;;;;;;;;;13.30;99.90;;;;;;5059066;28;19909;-58
2022/11/12 04:39:31;;;;;;;;;;;13.20;99.90;;;;;;5059398;28;19916;-58
2022/11/12 04:47:35;;;;;;;;;;;13.30;99.90;;;;;;5059077;28;20047;-58
2022/11/12 04:50:02;;;;;;;;;;;13.30;99.90;;;;;;5058802;28;19920;-58
2022/11/12 04:52:29;;;;;;;;;;;13.40;99.90;;;;;;5059357;28;19909;-58
2022/11/12 04:54:55;;;;;;;;;;;13.40;99.90;;;;;;5058810;28;19909;-58
2022/11/12 04:57:21;;;;;;;;;;;13.40;99.90;;;;;;5058762;28;19915;-58
2022/11/12 04:59:46;;;;;;;;;;;13.50;99.90;;;;;;5058928;28;19912;-58
2022/11/12 05:02:13;;;;;;;;;;;13.50;99.90;;;;;;5058887;28;20423;-58
2022/11/12 05:04:38;;;;;;;;;;;13.50;99.90;;;;;;5058821;28;19932;-58
2022/11/12 05:07:04;;;;;;;;;;;13.50;99.90;;;;;;5058555;28;19971;-58
2022/11/12 05:09:30;;;;;;;;;;;13.50;99.90;;;;;;5058223;28;19921;-58
2022/11/12 05:11:56;;;;;;;;;;;13.50;99.90;;;;;;5058046;28;19916;-58
2022/11/12 05:14:22;;;;;;;;;;;13.50;99.90;;;;;;5058574;28;19952;-58
2022/11/12 05:16:47;;;;;;;;;;;13.50;99.90;;;;;;5058605;28;20303;-58
2022/11/12 05:19:13;;;;;;;;;;;13.50;99.90;;;;;;5058529;28;19909;-58
2022/11/12 05:24:23;;;;;;;;;;;13.50;99.90;;;;;;5058655;28;19955;-58
2022/11/12 05:26:49;;;;;;;;;;;13.50;99.90;;;;;;5058652;28;19909;-58
2022/11/12 05:29:15;;;;;;;;;;;13.60;99.90;;;;;;5058214;28;19916;-58
2022/11/12 05:31:40;;;;;;;;;;;13.60;99.90;;;;;;5058204;28;19909;-58
2022/11/12 05:34:06;;;;;;;;;;;13.60;99.90;;;;;;5058503;28;20390;-58
2022/11/12 05:36:32;;;;;;;;;;;13.60;99.90;;;;;;5058469;28;19987;-58
2022/11/12 05:38:58;;;;;;;;;;;13.60;99.90;;;;;;5058264;28;19931;-58
2022/11/12 05:41:24;;;;;;;;;;;13.60;99.90;;;;;;5058028;28;19916;-58
2022/11/12 05:43:49;;;;;;;;;;;13.70;99.90;;;;;;5058225;28;19913;-58
2022/11/12 05:46:15;;;;;;;;;;;13.70;99.90;;;;;;5058019;28;19908;-58
2022/11/12 05:48:40;;;;;;;;;;;13.70;99.90;;;;;;5057965;28;19909;-58
2022/11/12 05:51:06;;;;;;;;;;;13.70;99.90;;;;;;5058073;28;19920;-58
2022/11/12 05:53:32;;;;;;;;;;;13.70;99.90;;;;;;5058069;28;19909;-58
2022/11/12 05:56:01;;;;;;;;;;;13.60;99.90;;;;;;5058195;28;20383;-58
2022/11/12 05:58:26;;;;;;;;;;;13.60;99.90;;;;;;5057811;28;19913;-58
2022/11/12 06:00:52;;;;;;;;;;;13.60;99.90;;;;;;5058052;28;20519;-58
2022/11/12 06:03:18;;;;;;;;;;;13.60;99.90;;;;;;5057741;28;19909;-58
2022/11/12 06:05:43;;;;;;;;;;;13.60;99.90;;;;;;5058244;28;19909;-58
2022/11/12 06:08:09;;;;;;;;;;;13.60;99.90;;;;;;5057913;28;19909;-59
2022/11/12 06:10:34;;;;;;;;;;;13.60;99.90;;;;;;5057613;28;20008;-58
2022/11/12 06:13:00;;;;;;;;;;;13.60;99.90;;;;;;5057703;28;19909;-58
2022/11/12 06:15:26;;;;;;;;;;;13.70;99.90;;;;;;5057978;28;19913;-58
2022/11/12 06:17:54;;;;;;;;;;;13.70;99.90;;;;;;5057583;28;19909;-58
2022/11/12 06:20:20;;;;;;;;;;;13.60;99.90;;;;;;5057846;28;19915;-58
2022/11/12 06:22:46;;;;;;;;;;;13.70;99.90;;;;;;5058346;28;19920;-58
2022/11/12 06:25:12;;;;;;;;;;;13.70;99.90;;;;;;5061950;28;19909;-58
2022/11/12 06:27:37;;;;;;;;;;;13.60;99.90;;;;;;5061643;28;19916;-58
2022/11/12 06:30:04;;;;;;;;;;;13.60;99.90;;;;;;5061952;28;20280;-58
2022/11/12 06:32:29;;;;;;;;;;;13.60;99.90;;;;;;5061472;28;20294;-58
2022/11/12 06:34:55;;;;;;;;;;;13.60;99.90;;;;;;5061731;28;19908;-58
2022/11/12 06:37:20;;;;;;;;;;;13.60;99.90;;;;;;5061373;28;19908;-58
2022/11/12 06:39:46;;;;;;;;;;;13.70;99.90;;;;;;5061541;28;19939;-58
2022/11/12 06:42:12;;;;;;;;;;;13.60;99.90;;;;;;5061723;28;20430;-58
2022/11/12 06:44:38;;;;;;;;;;;13.60;99.90;;;;;;5061501;28;19909;-58
2022/11/12 06:47:03;;;;;;;;;;;13.60;99.90;;;;;;5061626;28;19909;-58
2022/11/12 06:49:29;;;;;;;;;;;13.60;99.90;;;;;;5061214;28;19942;-58
2022/11/12 06:51:54;;;;;;;;;;;13.70;99.90;;;;;;5060993;28;19909;-58
2022/11/12 06:54:20;;;;;;;;;;;13.70;99.90;;;;;;5061042;28;20043;-58
2022/11/12 06:56:46;;;;;;;;;;;13.70;99.90;;;;;;5060965;28;19916;-59
2022/11/12 06:59:12;;;;;;;;;;;13.70;99.90;;;;;;5061190;28;19949;-58
2022/11/12 07:01:37;;;;;;;;;;;13.70;99.90;;;;;;5060608;28;19916;-58
2022/11/12 07:04:03;;;;;;;;;;;13.70;99.90;;;;;;5059302;28;19915;-58
2022/11/12 07:06:29;;;;;;;;;;;13.70;99.90;;;;;;5061066;28;19962;-58
2022/11/12 07:08:55;;;;;;;;;;;13.70;99.90;;;;;;5060942;28;19909;-58
2022/11/12 07:11:20;;;;;;;;;;;13.70;99.90;;;;;;5061067;28;19966;-58
2022/11/12 07:13:46;;;;;;;;;;;13.80;99.90;;;;;;5060941;28;19916;-58
2022/11/12 07:16:13;;;;;;;;;;;13.70;99.90;;;;;;5060525;28;19915;-58
2022/11/12 07:18:38;;;;;;;;;;;13.70;99.90;;;;;;5060867;28;19909;-58
2022/11/12 07:21:09;;;;;;;;;;;13.70;99.90;;;;;;5060496;28;19915;-58
2022/11/12 07:23:35;;;;;;;;;;;13.70;99.90;;;;;;5060670;28;19916;-58
2022/11/12 07:26:02;;;;;;;;;;;13.70;99.90;;;;;;5060874;28;19932;-58
2022/11/12 07:28:28;;;;;;;;;;;13.70;99.90;;;;;;5060628;28;19984;-58
2022/11/12 07:30:58;;;;;;;;;;;13.70;99.90;;;;;;5060483;28;19944;-58
2022/11/12 07:33:23;;;;;;;;;;;13.70;99.90;;;;;;5060789;28;19909;-58
2022/11/12 07:35:55;;;;;;;;;;;13.70;99.90;;;;;;5060185;28;19909;-58
2022/11/12 07:38:21;;;;;;;;;;;13.60;99.90;;;;;;5060275;28;19909;-58
2022/11/12 07:40:46;;;;;;;;;;;13.60;99.90;;;;;;5060227;28;19919;-58
2022/11/12 07:43:12;;;;;;;;;;;13.60;99.90;;;;;;5060400;28;19913;-58
2022/11/12 07:45:38;;;;;;;;;;;13.70;99.90;;;;;;5060301;28;19948;-58
2022/11/12 07:48:03;;;;;;;;;;;13.80;99.90;;;;;;5060275;28;19956;-58
2022/11/12 07:50:29;;;;;;;;;;;13.80;99.90;;;;;;5059872;28;20352;-58
2022/11/12 07:52:57;;;;;;;;;;;13.90;99.90;;;;;;5060425;28;19909;-58
2022/11/12 07:55:22;;;;;;;;;;;14.00;99.90;;;;;;5060191;28;19909;-58
2022/11/12 07:57:48;;;;;;;;;;;14.10;99.90;;;;;;5060134;28;19916;-58
2022/11/12 08:00:14;;;;;;;;;;;14.10;99.90;;;;;;5059792;28;19916;-58
2022/11/12 08:02:40;;;;;;;;;;;14.10;99.90;;;;;;5060251;28;19908;-58
2022/11/12 08:05:06;;;;;;;;;;;14.20;99.90;;;;;;5059731;28;19917;-58
2022/11/12 08:07:31;;;;;;;;;;;14.20;99.90;;;;;;5059747;28;19908;-58
2022/11/12 08:09:57;;;;;;;;;;;14.40;99.90;;;;;;5059446;28;19943;-58
2022/11/12 08:12:23;;;;;;;;;;;14.40;99.90;;;;;;5059780;28;19912;-58
2022/11/12 08:14:49;;;;;;;;;;;14.40;99.90;;;;;;5059818;28;19913;-58
2022/11/12 08:17:14;;;;;;;;;;;14.40;99.90;;;;;;5059485;28;19915;-58
2022/11/12 08:19:40;;;;;;;;;;;14.50;99.90;;;;;;5059472;28;20391;-58
2022/11/12 08:22:06;;;;;;;;;;;14.50;99.90;;;;;;5059519;28;19916;-58
2022/11/12 08:24:31;;;;;;;;;;;14.60;99.90;;;;;;5059699;28;19996;-58
2022/11/12 08:26:57;;;;;;;;;;;14.70;99.90;;;;;;5059268;28;19909;-58
2022/11/12 08:29:22;;;;;;;;;;;14.80;99.90;;;;;;5059247;28;19909;-58
2022/11/12 08:31:48;;;;;;;;;;;14.90;99.90;;;;;;5059231;28;19908;-58
2022/11/12 08:34:14;;;;;;;;;;;15.10;99.90;;;;;;5058873;28;19909;-59
2022/11/12 08:36:40;;;;;;;;;;;15.20;99.90;;;;;;5057401;28;20319;-58
2022/11/12 08:39:06;;;;;;;;;;;15.20;99.90;;;;;;5058535;28;19931;-58
2022/11/12 08:41:32;;;;;;;;;;;15.30;99.90;;;;;;5059166;28;19915;-58
2022/11/12 08:43:58;;;;;;;;;;;15.30;99.90;;;;;;5059193;28;19958;-58
2022/11/12 08:46:23;;;;;;;;;;;15.40;99.90;;;;;;5058180;28;19968;-58
2022/11/12 08:48:49;;;;;;;;;;;15.50;99.90;;;;;;5058926;28;19909;-58
2022/11/12 08:51:15;;;;;;;;;;;15.80;99.90;;;;;;5058534;28;19912;-58
2022/11/12 08:53:40;;;;;;;;;;;16.00;99.90;;;;;;5058247;28;20428;-58
2022/11/12 08:56:06;;;;;;;;;;;16.00;99.90;;;;;;5056853;28;19908;-58
2022/11/12 08:58:31;;;;;;;;;;;16.10;99.90;;;;;;5057432;28;19908;-58
2022/11/12 09:01:02;;;;;;;;;;;16.00;99.90;;;;;;5059004;28;19909;-59
2022/11/12 09:03:28;;;;;;;;;;;16.00;99.90;;;;;;5057953;28;19916;-58
2022/11/12 09:05:53;;;;;;;;;;;16.10;99.90;;;;;;5058556;28;20338;-58
2022/11/12 09:08:32;;;;;;;;;;;16.30;99.90;;;;;;5115773;27;19919;-58
2022/11/12 09:10:58;;;;;;;;;;;16.30;99.90;;;;;;5113662;28;19912;-58
2022/11/12 09:13:23;;;;;;;;;;;16.40;99.90;;;;;;5115477;28;19908;-59
2022/11/12 09:15:49;;;;;;;;;;;16.50;99.90;;;;;;5114326;28;19996;-59
2022/11/12 09:18:15;;;;;;;;;;;16.60;99.90;;;;;;5115561;28;19912;-59
2022/11/12 09:20:41;;;;;;;;;;;16.70;99.90;;;;;;5115568;28;19908;-59
2022/11/12 09:23:11;;;;;;;;;;;16.80;99.90;;;;;;5115462;28;20402;-58
2022/11/12 09:25:37;;;;;;;;;;;16.90;99.90;;;;;;5115612;28;19915;-59
2022/11/12 09:28:10;;;;;;;;;;;16.90;99.90;;;;;;5113841;28;19912;-59
2022/11/12 09:30:37;;;;;;;;;;;16.80;99.90;;;;;;5114238;28;19954;-59
2022/11/12 09:33:03;;;;;;;;;;;16.80;99.90;;;;;;5114671;28;20022;-59
2022/11/12 09:35:28;;;;;;;;;;;16.90;99.90;;;;;;5115319;28;20259;-59
2022/11/12 09:37:55;;;;;;;;;;;17.10;99.90;;;;;;5115170;28;19908;-59
2022/11/12 09:40:21;;;;;;;;;;;17.20;99.90;;;;;;5115470;28;19998;-59
2022/11/12 09:42:50;;;;;;;;;;;17.10;99.90;;;;;;5115506;28;19951;-59
2022/11/12 09:45:41;;;;;;;;;;;17.30;99.90;;;;;;5115192;28;20363;-59
2022/11/12 09:48:10;;;;;;;;;;;17.50;99.90;;;;;;5112981;28;19919;-59
2022/11/12 09:50:39;;;;;;;;;;;17.80;99.90;;;;;;5115333;28;19908;-59
2022/11/12 09:53:13;;;;;;;;;;;17.80;99.90;;;;;;5114977;28;19915;-59
2022/11/12 09:55:40;;;;;;;;;;;17.80;99.90;;;;;;5115034;28;19912;-59
2022/11/12 09:58:17;;;;;;;;;;;18.20;99.90;;;;;;5114896;28;20003;-59
2022/11/12 10:00:51;;;;;;;;;;;18.40;99.90;;;;;;5114769;28;19908;-59
2022/11/12 10:03:33;;;;;;;;;;;18.80;99.90;;;;;;5114811;28;19908;-59
2022/11/12 10:06:11;;;;;;;;;;;19.10;99.90;;;;;;5115186;28;20317;-59
2022/11/12 10:08:46;;;;;;;;;;;19.50;99.90;;;;;;5114750;28;19927;-59
2022/11/12 10:11:18;;;;;;;;;;;19.70;99.90;;;;;;5114856;28;19908;-59
2022/11/12 10:14:06;;;;;;;;;;;20.20;99.90;;;;;;5114819;28;19911;-59
2022/11/12 10:16:44;;;;;;;;;;;20.20;99.90;;;;;;5108543;28;19908;-59
2022/11/12 10:19:12;;;;;;;;;;;20.30;99.60;;;;;;5104243;28;20323;-59
2022/11/12 10:22:10;;;;;;;;;;;20.10;99.10;;;;;;5101018;28;20268;-59
2022/11/12 10:24:37;;;;;;;;;;;20.30;99.90;;;;;;5077589;28;19990;-59
2022/11/12 10:27:17;;;;;;;;;;;21.10;99.90;;;;;;5100513;28;20297;-59
2022/11/12 10:29:51;;;;;;;;;;;21.50;98.90;;;;;;5100701;28;19908;-59
2022/11/12 10:32:17;;;;;;;;;;;21.90;99.90;;;;;;5100806;28;19908;-60
2022/11/12 10:34:42;;;;;;;;;;;22.20;97.00;;;;;;5100938;28;20395;-60
2022/11/12 10:37:26;;;;;;;;;;;22.00;95.90;;;;;;5100930;28;19919;-59
2022/11/12 10:39:52;;;;;;;;;;;21.90;98.20;;;;;;5100440;28;20026;-60
2022/11/12 10:42:19;;;;;;;;;;;21.90;95.60;;;;;;5100411;28;19938;-60
2022/11/12 10:44:44;;;;;;;;;;;21.80;97.90;;;;;;5100608;28;19908;-59
2022/11/12 10:47:27;;;;;;;;;;;22.00;94.90;;;;;;5100366;28;19912;-59
2022/11/12 10:49:58;;;;;;;;;;;22.00;96.60;;;;;;5100066;28;20279;-59
2022/11/12 10:52:24;;;;;;;;;;;21.90;94.10;;;;;;5098932;28;19914;-59
2022/11/12 10:55:01;;;;;;;;;;;21.70;96.70;;;;;;5098872;28;19908;-59
2022/11/12 10:57:27;;;;;;;;;;;22.10;96.20;;;;;;5100371;28;19908;-59
2022/11/12 11:00:11;;;;;;;;;;;22.30;96.30;;;;;;5100182;28;20279;-59
2022/11/12 11:02:37;;;;;;;;;;;22.70;94.00;;;;;;5099984;28;19912;-59
2022/11/12 11:05:26;;;;;;;;;;;22.10;93.70;;;;;;5100194;28;20417;-59
2022/11/12 11:07:51;;;;;;;;;;;22.00;95.50;;;;;;5099629;28;19920;-59
2022/11/12 11:10:22;;;;;;;;;;;22.90;95.70;;;;;;5099615;28;19968;-60
2022/11/12 11:12:48;;;;;;;;;;;23.10;93.50;;;;;;5098662;28;19914;-60
2022/11/12 11:15:18;;;;;;;;;;;23.20;91.60;;;;;;5098584;28;19908;-60
2022/11/12 11:17:44;;;;;;;;;;;23.00;90.90;;;;;;5099399;28;20006;-60
2022/11/12 11:20:24;;;;;;;;;;;22.90;91.60;;;;;;5099276;28;19966;-60
2022/11/12 11:22:55;;;;;;;;;;;22.90;91.80;;;;;;5099211;28;19951;-60
2022/11/12 11:25:31;;;;;;;;;;;22.80;91.90;;;;;;5081183;28;19908;-60
2022/11/12 11:28:15;;;;;;;;;;;23.10;94.60;;;;;;5099870;28;19912;-60
2022/11/12 11:30:49;;;;;;;;;;;23.20;91.60;;;;;;5098393;28;20380;-60
2022/11/12 11:33:18;;;;;;;;;;;23.20;92.30;;;;;;5099456;28;19912;-59
2022/11/12 11:35:46;;;;;;;;;;;23.10;90.60;;;;;;5099554;28;19908;-60
2022/11/12 11:38:19;;;;;;;;;;;23.00;91.00;;;;;;5098243;28;20335;-60
2022/11/12 11:40:57;;;;;;;;;;;22.60;91.20;;;;;;5099509;28;19908;-59
2022/11/12 11:43:22;;;;;;;;;;;22.70;92.10;;;;;;5099512;28;19908;-59
2022/11/12 11:45:58;;;;;;;;;;;23.50;92.40;;;;;;5098992;28;20034;-59
2022/11/12 11:48:42;;;;;;;;;;;23.30;92.10;;;;;;5099230;28;20475;-60
2022/11/12 11:51:20;;;;;;;;;;;23.60;90.50;;;;;;5099454;28;19957;-60
2022/11/12 11:54:04;;;;;;;;;;;23.50;89.60;;;;;;5099117;28;19915;-60
2022/11/12 11:56:32;;;;;;;;;;;23.50;88.90;;;;;;5098956;28;19916;-60
2022/11/12 11:59:04;;;;;;;;;;;23.90;92.90;;;;;;5099116;28;19934;-60
2022/11/12 12:01:50;;;;;;;;;;;23.70;90.30;;;;;;5099281;28;19921;-60
2022/11/12 12:04:18;;;;;;;;;;;24.00;86.60;;;;;;5067240;28;19916;-60
2022/11/12 12:07:04;;;;;;;;;;;23.70;91.70;;;;;;5098667;28;19926;-59
2022/11/12 12:09:36;;;;;;;;;;;23.90;88.10;;;;;;5098089;28;20046;-60
2022/11/12 12:12:05;;;;;;;;;;;23.60;86.30;;;;;;5098729;28;19908;-59
2022/11/12 12:14:30;;;;;;;;;;;23.10;90.00;;;;;;5098646;28;19915;-60
2022/11/12 12:16:56;;;;;;;;;;;23.50;90.00;;;;;;5098793;28;19944;-60
2022/11/12 12:19:40;;;;;;;;;;;23.50;90.30;;;;;;5098167;28;19908;-60
2022/11/12 12:22:09;;;;;;;;;;;24.30;86.40;;;;;;5098465;28;19912;-60
2022/11/12 12:24:39;;;;;;;;;;;24.20;85.20;;;;;;5098635;28;19908;-60
2022/11/12 12:27:07;;;;;;;;;;;24.30;85.70;;;;;;5098693;28;20301;-60
2022/11/12 12:29:42;;;;;;;;;;;24.00;87.80;;;;;;5098394;28;20324;-59
2022/11/12 12:32:13;;;;;;;;;;;23.80;86.20;;;;;;5098020;28;20046;-59
2022/11/12 12:34:42;;;;;;;;;;;23.70;84.00;;;;;;5098288;28;19908;-59
2022/11/12 12:37:20;;;;;;;;;;;23.70;90.70;;;;;;5098621;28;19908;-59
2022/11/12 12:40:04;;;;;;;;;;;23.90;87.60;;;;;;5098304;28;19916;-59
2022/11/12 12:42:36;;;;;;;;;;;24.40;87.00;;;;;;5098205;28;20037;-59
2022/11/12 12:45:23;;;;;;;;;;;24.20;80.00;;;;;;5098257;28;19908;-59
2022/11/12 12:47:50;;;;;;;;;;;23.70;83.90;;;;;;5097942;28;19919;-59
2022/11/12 12:50:16;;;;;;;;;;;23.20;85.20;;;;;;5098283;28;19908;-59
2022/11/12 12:53:17;;;;;;;;;;;23.20;87.50;;;;;;5098559;28;19908;-60
2022/11/12 12:55:47;;;;;;;;;;;23.50;85.90;;;;;;5035731;28;20396;-59
2022/11/12 12:58:24;;;;;;;;;;;23.10;85.80;;;;;;5086831;28;19916;-59
2022/11/12 13:00:59;;;;;;;;;;;23.00;85.40;;;;;;5098220;28;20249;-59
2022/11/12 13:03:43;;;;;;;;;;;22.80;85.80;;;;;;5098010;28;20350;-59
2022/11/12 13:06:23;;;;;;;;;;;22.80;86.80;;;;;;5097746;28;19912;-60
2022/11/12 13:09:04;;;;;;;;;;;22.80;86.90;;;;;;5098135;28;19908;-59
2022/11/12 13:14:38;;;;;;;;;;;22.70;86.40;;;;;;5097996;28;19915;-59
2022/11/12 13:17:15;;;;;;;;;;;22.60;88.20;;;;;;5097897;28;20361;-60
2022/11/12 13:19:53;;;;;;;;;;;23.00;89.50;;;;;;5098017;28;19919;-60
2022/11/12 13:22:18;;;;;;;;;;;23.50;87.40;;;;;;5097996;28;19912;-59
2022/11/12 13:25:03;;;;;;;;;;;23.40;85.70;;;;;;5098036;28;20003;-59
2022/11/12 13:27:38;;;;;;;;;;;23.20;84.90;;;;;;5097673;28;19920;-60
2022/11/12 13:30:06;;;;;;;;;;;23.70;86.80;;;;;;5097983;28;19915;-59
2022/11/12 13:32:36;;;;;;;;;;;23.40;84.50;;;;;;5097877;28;19912;-60
2022/11/12 13:35:28;;;;;;;;;;;23.70;84.40;;;;;;5097621;28;20326;-60
2022/11/12 13:38:03;;;;;;;;;;;23.50;83.50;;;;;;5094644;28;19908;-60
2022/11/12 13:40:29;;;;;;;;;;;23.30;88.00;;;;;;5097789;28;19912;-60
2022/11/12 13:43:02;;;;;;;;;;;23.90;84.20;;;;;;5097679;28;19908;-60
2022/11/12 13:45:28;;;;;;;;;;;23.50;85.90;;;;;;5097809;28;19908;-59
2022/11/12 13:47:54;;;;;;;;;;;23.60;87.30;;;;;;5097524;28;19999;-59
2022/11/12 13:50:21;;;;;;;;;;;23.80;83.30;;;;;;5097604;28;19914;-59
2022/11/12 13:52:47;;;;;;;;;;;23.80;86.00;;;;;;5097533;28;19908;-59
2022/11/12 13:55:14;;;;;;;;;;;23.80;86.90;;;;;;5101271;28;19915;-59
2022/11/12 13:57:40;;;;;;;;;;;23.80;87.60;;;;;;5101193;28;19914;-59
2022/11/12 14:00:07;;;;;;;;;;;23.60;83.60;;;;;;5101574;28;19999;-59
2022/11/12 14:02:33;;;;;;;;;;;23.70;83.10;;;;;;5101231;28;19908;-59
2022/11/12 14:04:59;;;;;;;;;;;23.20;84.90;;;;;;5101207;28;19912;-59
2022/11/12 14:07:39;;;;;;;;;;;23.30;85.10;;;;;;5101136;28;19927;-59
2022/11/12 14:10:04;;;;;;;;;;;23.30;85.10;;;;;;5101138;28;19916;-59
2022/11/12 14:12:38;;;;;;;;;;;23.60;86.30;;;;;;5101080;28;19908;-59
2022/11/12 14:15:13;;;;;;;;;;;23.80;85.80;;;;;;5101066;28;19908;-59
2022/11/12 14:17:50;;;;;;;;;;;23.70;83.30;;;;;;5101159;28;20401;-59
2022/11/12 14:20:24;;;;;;;;;;;23.50;84.20;;;;;;5101128;28;19974;-59
2022/11/12 14:22:50;;;;;;;;;;;23.40;86.50;;;;;;5101339;28;19910;-59
2022/11/12 14:25:19;;;;;;;;;;;23.30;84.80;;;;;;5100775;28;19909;-59
2022/11/12 14:27:46;;;;;;;;;;;23.10;85.80;;;;;;5100468;28;20295;-59
2022/11/12 14:30:13;;;;;;;;;;;23.00;84.30;;;;;;5100924;28;19908;-59
2022/11/12 14:32:40;;;;;;;;;;;22.60;87.30;;;;;;5100929;28;19997;-59
2022/11/12 14:35:24;;;;;;;;;;;22.50;86.50;;;;;;5100680;28;20428;-59
2022/11/12 14:37:51;;;;;;;;;;;22.30;87.50;;;;;;5101059;28;19955;-59
2022/11/12 14:40:18;;;;;;;;;;;21.90;90.10;;;;;;5100565;28;19931;-59
2022/11/12 14:42:44;;;;;;;;;;;21.80;90.20;;;;;;5100316;28;20259;-59
2022/11/12 14:45:17;;;;;;;;;;;21.50;90.70;;;;;;5100485;28;19908;-59
2022/11/12 14:47:43;;;;;;;;;;;21.00;91.70;;;;;;5100494;28;19951;-59
2022/11/12 14:50:32;;;;;;;;;;;20.70;92.70;;;;;;5100399;28;19912;-59
2022/11/12 14:53:00;;;;;;;;;;;20.60;92.60;;;;;;5091874;28;19908;-59